sensor_id;sensor_type;location;lat;lon;timestamp;temperature;humidity
30308;DHT22;17114;52.314;8.910;2023-08-01T00:01:46;16.40;99.90
30308;DHT22;17114;52.314;8.910;2023-08-01T00:04:13;16.50;99.90
30308;DHT22;17114;52.314;8.910;2023-08-01T00:06:40;16.50;99.90
30308;DHT22;17114;52.314;8.910;2023-08-01T00:09:07;16.50;99.90
30308;DHT22;17114;52.314;8.910;2023-08-01T00:11:34;16.50;99.90
30308;DHT22;17114;52.314;8.910;2023-08-01T00:14:01;16.50;99.90
30308;DHT22;17114;52.314;8.910;2023-08-01T00:16:28;16.50;99.90
30308;DHT22;17114;52.314;8.910;2023-08-01T00:18:55;16.50;99.90
30308;DHT22;17114;52.314;8.910;2023-08-01T00:21:22;16.50;99.90
30308;DHT22;17114;52.314;8.910;2023-08-01T00:23:49;16.50;99.90
30308;DHT22;17114;52.314;8.910;2023-08-01T00:26:16;16.50;99.90
30308;DHT22;17114;52.314;8.910;2023-08-01T00:28:43;16.50;99.90
30308;DHT22;17114;52.314;8.910;2023-08-01T00:31:09;16.50;99.90
30308;DHT22;17114;52.314;8.910;2023-08-01T00:33:37;16.50;99.90
30308;DHT22;17114;52.314;8.910;2023-08-01T00:36:03;16.50;99.90
30308;DHT22;17114;52.314;8.910;2023-08-01T00:38:36;16.60;99.90
30308;DHT22;17114;52.314;8.910;2023-08-01T00:41:03;16.60;99.90
30308;DHT22;17114;52.314;8.910;2023-08-01T00:43:30;16.50;99.90
30308;DHT22;17114;52.314;8.910;2023-08-01T00:45:59;16.40;99.90
30308;DHT22;17114;52.314;8.910;2023-08-01T00:48:28;16.60;99.90
30308;DHT22;17114;52.314;8.910;2023-08-01T00:50:57;16.60;99.90
30308;DHT22;17114;52.314;8.910;2023-08-01T00:53:26;16.50;99.90
30308;DHT22;17114;52.314;8.910;2023-08-01T00:55:54;16.50;99.90
30308;DHT22;17114;52.314;8.910;2023-08-01T00:58:21;16.50;99.90
30308;DHT22;17114;52.314;8.910;2023-08-01T01:00:48;16.50;99.90
30308;DHT22;17114;52.314;8.910;2023-08-01T01:03:16;16.40;99.90
30308;DHT22;17114;52.314;8.910;2023-08-01T01:08:34;16.30;99.90
30308;DHT22;17114;52.314;8.910;2023-08-01T01:11:00;16.30;99.90
30308;DHT22;17114;52.314;8.910;2023-08-01T01:13:27;16.30;99.90
30308;DHT22;17114;52.314;8.910;2023-08-01T01:15:54;16.20;99.90
30308;DHT22;17114;52.314;8.910;2023-08-01T01:18:21;16.30;99.90
30308;DHT22;17114;52.314;8.910;2023-08-01T01:20:48;16.20;99.90
30308;DHT22;17114;52.314;8.910;2023-08-01T01:23:15;16.10;99.90
30308;DHT22;17114;52.314;8.910;2023-08-01T01:25:43;16.10;99.90
30308;DHT22;17114;52.314;8.910;2023-08-01T01:28:10;16.10;99.90
30308;DHT22;17114;52.314;8.910;2023-08-01T01:30:38;16.00;99.90
30308;DHT22;17114;52.314;8.910;2023-08-01T01:33:06;16.00;99.90
30308;DHT22;17114;52.314;8.910;2023-08-01T01:35:34;15.90;99.90
30308;DHT22;17114;52.314;8.910;2023-08-01T01:38:02;15.90;99.90
30308;DHT22;17114;52.314;8.910;2023-08-01T01:40:31;15.90;99.90
30308;DHT22;17114;52.314;8.910;2023-08-01T01:42:59;15.80;99.90
30308;DHT22;17114;52.314;8.910;2023-08-01T01:45:27;15.70;99.90
30308;DHT22;17114;52.314;8.910;2023-08-01T01:47:54;15.80;99.90
30308;DHT22;17114;52.314;8.910;2023-08-01T01:50:21;15.70;99.90
30308;DHT22;17114;52.314;8.910;2023-08-01T01:52:47;15.70;99.90
30308;DHT22;17114;52.314;8.910;2023-08-01T01:55:14;15.70;99.90
30308;DHT22;17114;52.314;8.910;2023-08-01T01:57:41;15.60;99.90
30308;DHT22;17114;52.314;8.910;2023-08-01T02:00:08;15.60;99.90
30308;DHT22;17114;52.314;8.910;2023-08-01T02:02:38;15.60;99.90
30308;DHT22;17114;52.314;8.910;2023-08-01T02:05:05;15.60;99.90
30308;DHT22;17114;52.314;8.910;2023-08-01T02:07:32;15.60;99.90
30308;DHT22;17114;52.314;8.910;2023-08-01T02:10:01;15.60;99.90
30308;DHT22;17114;52.314;8.910;2023-08-01T02:12:28;15.50;99.90
30308;DHT22;17114;52.314;8.910;2023-08-01T02:14:58;15.50;99.90
30308;DHT22;17114;52.314;8.910;2023-08-01T02:17:25;15.50;99.90
30308;DHT22;17114;52.314;8.910;2023-08-01T02:19:52;15.40;99.90
30308;DHT22;17114;52.314;8.910;2023-08-01T02:22:19;15.40;99.90
30308;DHT22;17114;52.314;8.910;2023-08-01T02:24:46;15.40;99.90
30308;DHT22;17114;52.314;8.910;2023-08-01T02:27:13;15.40;99.90
30308;DHT22;17114;52.314;8.910;2023-08-01T02:29:40;15.30;99.90
30308;DHT22;17114;52.314;8.910;2023-08-01T02:32:07;15.30;99.90
30308;DHT22;17114;52.314;8.910;2023-08-01T02:34:34;15.30;99.90
30308;DHT22;17114;52.314;8.910;2023-08-01T02:37:01;15.30;99.90
30308;DHT22;17114;52.314;8.910;2023-08-01T02:39:28;15.30;99.90
30308;DHT22;17114;52.314;8.910;2023-08-01T02:41:54;15.20;99.90
30308;DHT22;17114;52.314;8.910;2023-08-01T02:44:21;15.20;99.90
30308;DHT22;17114;52.314;8.910;2023-08-01T02:46:48;15.20;99.90
30308;DHT22;17114;52.314;8.910;2023-08-01T02:49:15;15.20;99.90
30308;DHT22;17114;52.314;8.910;2023-08-01T02:51:42;15.20;99.90
30308;DHT22;17114;52.314;8.910;2023-08-01T02:54:08;15.20;99.90
30308;DHT22;17114;52.314;8.910;2023-08-01T02:56:35;15.20;99.90
30308;DHT22;17114;52.314;8.910;2023-08-01T02:59:08;15.20;99.90
30308;DHT22;17114;52.314;8.910;2023-08-01T03:01:36;15.20;99.90
30308;DHT22;17114;52.314;8.910;2023-08-01T03:04:04;15.20;99.90
30308;DHT22;17114;52.314;8.910;2023-08-01T03:06:34;15.20;99.90
30308;DHT22;17114;52.314;8.910;2023-08-01T03:09:01;15.20;99.90
30308;DHT22;17114;52.314;8.910;2023-08-01T03:11:28;15.10;99.90
30308;DHT22;17114;52.314;8.910;2023-08-01T03:13:55;15.00;99.90
30308;DHT22;17114;52.314;8.910;2023-08-01T03:16:23;15.10;99.90
30308;DHT22;17114;52.314;8.910;2023-08-01T03:18:49;15.10;99.90
30308;DHT22;17114;52.314;8.910;2023-08-01T03:21:16;15.20;99.90
30308;DHT22;17114;52.314;8.910;2023-08-01T03:23:43;15.10;99.90
30308;DHT22;17114;52.314;8.910;2023-08-01T03:26:11;15.20;99.90
30308;DHT22;17114;52.314;8.910;2023-08-01T03:28:38;15.20;99.90
30308;DHT22;17114;52.314;8.910;2023-08-01T03:31:05;15.20;99.90
30308;DHT22;17114;52.314;8.910;2023-08-01T03:33:33;15.20;99.90
30308;DHT22;17114;52.314;8.910;2023-08-01T03:36:00;15.20;99.90
30308;DHT22;17114;52.314;8.910;2023-08-01T03:38:27;15.20;99.90
30308;DHT22;17114;52.314;8.910;2023-08-01T03:40:54;15.20;99.90
30308;DHT22;17114;52.314;8.910;2023-08-01T03:43:21;15.10;99.90
30308;DHT22;17114;52.314;8.910;2023-08-01T03:45:51;15.10;99.90
30308;DHT22;17114;52.314;8.910;2023-08-01T03:48:18;15.10;99.90
30308;DHT22;17114;52.314;8.910;2023-08-01T03:50:45;15.10;99.90
30308;DHT22;17114;52.314;8.910;2023-08-01T03:53:12;15.20;99.90
30308;DHT22;17114;52.314;8.910;2023-08-01T03:55:38;15.20;99.90
30308;DHT22;17114;52.314;8.910;2023-08-01T03:58:05;15.10;99.90
30308;DHT22;17114;52.314;8.910;2023-08-01T04:00:32;15.20;99.90
30308;DHT22;17114;52.314;8.910;2023-08-01T04:03:00;15.20;99.90
30308;DHT22;17114;52.314;8.910;2023-08-01T04:05:28;15.20;99.90
30308;DHT22;17114;52.314;8.910;2023-08-01T04:07:56;15.10;99.90
30308;DHT22;17114;52.314;8.910;2023-08-01T04:10:23;15.10;99.90
30308;DHT22;17114;52.314;8.910;2023-08-01T04:12:50;15.10;99.90
30308;DHT22;17114;52.314;8.910;2023-08-01T04:15:17;15.00;99.90
30308;DHT22;17114;52.314;8.910;2023-08-01T04:17:44;15.10;99.90
30308;DHT22;17114;52.314;8.910;2023-08-01T04:20:11;15.10;99.90
30308;DHT22;17114;52.314;8.910;2023-08-01T04:22:39;15.10;99.90
30308;DHT22;17114;52.314;8.910;2023-08-01T04:25:06;15.10;99.90
30308;DHT22;17114;52.314;8.910;2023-08-01T04:27:33;15.10;99.90
30308;DHT22;17114;52.314;8.910;2023-08-01T04:30:00;15.20;99.90
30308;DHT22;17114;52.314;8.910;2023-08-01T04:32:27;15.20;99.90
30308;DHT22;17114;52.314;8.910;2023-08-01T04:34:54;15.20;99.90
30308;DHT22;17114;52.314;8.910;2023-08-01T04:37:21;15.40;99.90
30308;DHT22;17114;52.314;8.910;2023-08-01T04:39:49;15.20;99.90
30308;DHT22;17114;52.314;8.910;2023-08-01T04:42:16;15.20;99.90
30308;DHT22;17114;52.314;8.910;2023-08-01T04:44:43;15.20;99.90
30308;DHT22;17114;52.314;8.910;2023-08-01T04:47:10;15.20;99.90
30308;DHT22;17114;52.314;8.910;2023-08-01T04:49:37;15.30;99.90
30308;DHT22;17114;52.314;8.910;2023-08-01T04:52:05;15.30;99.90
30308;DHT22;17114;52.314;8.910;2023-08-01T04:54:34;15.30;99.90
30308;DHT22;17114;52.314;8.910;2023-08-01T04:57:01;15.30;99.90
30308;DHT22;17114;52.314;8.910;2023-08-01T04:59:27;15.30;99.90
30308;DHT22;17114;52.314;8.910;2023-08-01T05:01:55;15.40;99.90
30308;DHT22;17114;52.314;8.910;2023-08-01T05:04:22;15.40;99.90
30308;DHT22;17114;52.314;8.910;2023-08-01T05:06:48;15.40;99.90
30308;DHT22;17114;52.314;8.910;2023-08-01T05:09:15;15.40;99.90
30308;DHT22;17114;52.314;8.910;2023-08-01T05:11:42;15.30;99.90
30308;DHT22;17114;52.314;8.910;2023-08-01T05:14:09;15.40;99.90
30308;DHT22;17114;52.314;8.910;2023-08-01T05:16:36;15.40;99.90
30308;DHT22;17114;52.314;8.910;2023-08-01T05:19:03;15.40;99.90
30308;DHT22;17114;52.314;8.910;2023-08-01T05:21:30;15.40;99.90
30308;DHT22;17114;52.314;8.910;2023-08-01T05:23:57;15.40;99.90
30308;DHT22;17114;52.314;8.910;2023-08-01T05:26:24;15.50;99.90
30308;DHT22;17114;52.314;8.910;2023-08-01T05:28:51;15.50;99.90
30308;DHT22;17114;52.314;8.910;2023-08-01T05:31:18;15.50;99.90
30308;DHT22;17114;52.314;8.910;2023-08-01T05:33:45;15.50;99.90
30308;DHT22;17114;52.314;8.910;2023-08-01T05:36:12;15.50;99.90
30308;DHT22;17114;52.314;8.910;2023-08-01T05:38:39;15.60;99.90
30308;DHT22;17114;52.314;8.910;2023-08-01T05:41:05;15.60;99.90
30308;DHT22;17114;52.314;8.910;2023-08-01T05:43:32;15.60;99.90
30308;DHT22;17114;52.314;8.910;2023-08-01T05:45:59;15.60;99.90
30308;DHT22;17114;52.314;8.910;2023-08-01T05:48:26;15.60;99.90
30308;DHT22;17114;52.314;8.910;2023-08-01T05:50:53;15.60;99.90
30308;DHT22;17114;52.314;8.910;2023-08-01T05:53:22;15.70;99.90
30308;DHT22;17114;52.314;8.910;2023-08-01T05:55:49;15.70;99.90
30308;DHT22;17114;52.314;8.910;2023-08-01T05:58:16;15.70;99.90
30308;DHT22;17114;52.314;8.910;2023-08-01T06:00:46;15.80;99.90
30308;DHT22;17114;52.314;8.910;2023-08-01T06:03:13;15.80;99.90
30308;DHT22;17114;52.314;8.910;2023-08-01T06:05:40;15.90;99.90
30308;DHT22;17114;52.314;8.910;2023-08-01T06:08:07;15.90;99.90
30308;DHT22;17114;52.314;8.910;2023-08-01T06:10:35;15.90;99.90
30308;DHT22;17114;52.314;8.910;2023-08-01T06:13:02;16.00;99.90
30308;DHT22;17114;52.314;8.910;2023-08-01T06:15:29;16.00;99.90
30308;DHT22;17114;52.314;8.910;2023-08-01T06:17:56;16.10;99.90
30308;DHT22;17114;52.314;8.910;2023-08-01T06:20:23;16.10;99.90
30308;DHT22;17114;52.314;8.910;2023-08-01T06:22:50;16.10;99.90
30308;DHT22;17114;52.314;8.910;2023-08-01T06:25:16;16.20;99.90
30308;DHT22;17114;52.314;8.910;2023-08-01T06:27:43;16.20;99.90
30308;DHT22;17114;52.314;8.910;2023-08-01T06:30:10;16.20;99.90
30308;DHT22;17114;52.314;8.910;2023-08-01T06:32:37;16.20;99.90
30308;DHT22;17114;52.314;8.910;2023-08-01T06:35:05;16.20;99.90
30308;DHT22;17114;52.314;8.910;2023-08-01T06:37:32;16.20;99.90
30308;DHT22;17114;52.314;8.910;2023-08-01T06:39:58;16.20;99.90
30308;DHT22;17114;52.314;8.910;2023-08-01T06:42:26;16.10;99.90
30308;DHT22;17114;52.314;8.910;2023-08-01T06:44:53;16.20;99.90
30308;DHT22;17114;52.314;8.910;2023-08-01T06:47:19;16.20;99.90
30308;DHT22;17114;52.314;8.910;2023-08-01T06:49:46;16.30;99.90
30308;DHT22;17114;52.314;8.910;2023-08-01T06:52:13;16.40;99.90
30308;DHT22;17114;52.314;8.910;2023-08-01T06:54:40;16.40;99.90
30308;DHT22;17114;52.314;8.910;2023-08-01T06:57:07;16.50;99.90
30308;DHT22;17114;52.314;8.910;2023-08-01T06:59:34;16.50;99.90
30308;DHT22;17114;52.314;8.910;2023-08-01T07:02:01;16.60;99.90
30308;DHT22;17114;52.314;8.910;2023-08-01T07:04:28;16.70;99.90
30308;DHT22;17114;52.314;8.910;2023-08-01T07:06:55;17.00;99.90
30308;DHT22;17114;52.314;8.910;2023-08-01T07:09:22;17.20;99.90
30308;DHT22;17114;52.314;8.910;2023-08-01T07:11:49;17.30;99.90
30308;DHT22;17114;52.314;8.910;2023-08-01T07:14:16;17.30;99.90
30308;DHT22;17114;52.314;8.910;2023-08-01T07:16:42;17.30;99.90
30308;DHT22;17114;52.314;8.910;2023-08-01T07:19:09;17.30;99.90
30308;DHT22;17114;52.314;8.910;2023-08-01T07:21:36;17.20;99.90
30308;DHT22;17114;52.314;8.910;2023-08-01T07:24:04;17.30;99.90
30308;DHT22;17114;52.314;8.910;2023-08-01T07:26:32;17.40;99.90
30308;DHT22;17114;52.314;8.910;2023-08-01T07:28:59;17.40;99.90
30308;DHT22;17114;52.314;8.910;2023-08-01T07:31:25;17.40;99.90
30308;DHT22;17114;52.314;8.910;2023-08-01T07:33:52;17.50;99.90
30308;DHT22;17114;52.314;8.910;2023-08-01T07:36:19;17.40;99.90
30308;DHT22;17114;52.314;8.910;2023-08-01T07:38:48;17.50;99.90
30308;DHT22;17114;52.314;8.910;2023-08-01T07:41:14;17.40;99.90
30308;DHT22;17114;52.314;8.910;2023-08-01T07:43:41;17.30;99.90
30308;DHT22;17114;52.314;8.910;2023-08-01T07:46:08;17.20;99.90
30308;DHT22;17114;52.314;8.910;2023-08-01T07:48:37;17.00;99.90
30308;DHT22;17114;52.314;8.910;2023-08-01T07:51:03;16.80;99.90
30308;DHT22;17114;52.314;8.910;2023-08-01T07:53:32;16.70;99.90
30308;DHT22;17114;52.314;8.910;2023-08-01T07:55:59;16.70;99.90
30308;DHT22;17114;52.314;8.910;2023-08-01T07:58:26;16.80;99.90
30308;DHT22;17114;52.314;8.910;2023-08-01T08:00:52;16.90;99.90
30308;DHT22;17114;52.314;8.910;2023-08-01T08:03:19;16.90;99.90
30308;DHT22;17114;52.314;8.910;2023-08-01T08:05:49;17.00;99.90
30308;DHT22;17114;52.314;8.910;2023-08-01T08:08:16;17.10;99.90
30308;DHT22;17114;52.314;8.910;2023-08-01T08:10:43;17.20;99.90
30308;DHT22;17114;52.314;8.910;2023-08-01T08:13:10;17.30;99.90
30308;DHT22;17114;52.314;8.910;2023-08-01T08:15:37;17.60;99.90
30308;DHT22;17114;52.314;8.910;2023-08-01T08:18:04;18.10;99.90
30308;DHT22;17114;52.314;8.910;2023-08-01T08:20:34;18.40;99.90
30308;DHT22;17114;52.314;8.910;2023-08-01T08:23:06;18.50;99.90
30308;DHT22;17114;52.314;8.910;2023-08-01T08:25:33;18.30;99.90
30308;DHT22;17114;52.314;8.910;2023-08-01T08:28:00;18.30;99.90
30308;DHT22;17114;52.314;8.910;2023-08-01T08:30:27;18.60;99.90
30308;DHT22;17114;52.314;8.910;2023-08-01T08:32:53;18.60;99.90
30308;DHT22;17114;52.314;8.910;2023-08-01T08:35:20;18.50;99.90
30308;DHT22;17114;52.314;8.910;2023-08-01T08:37:47;18.30;99.90
30308;DHT22;17114;52.314;8.910;2023-08-01T08:40:14;18.20;99.90
30308;DHT22;17114;52.314;8.910;2023-08-01T08:42:41;18.30;99.90
30308;DHT22;17114;52.314;8.910;2023-08-01T08:45:09;18.70;99.90
30308;DHT22;17114;52.314;8.910;2023-08-01T08:47:38;18.90;99.90
30308;DHT22;17114;52.314;8.910;2023-08-01T08:50:09;19.50;99.90
30308;DHT22;17114;52.314;8.910;2023-08-01T08:52:37;20.20;99.90
30308;DHT22;17114;52.314;8.910;2023-08-01T08:55:04;20.70;99.90
30308;DHT22;17114;52.314;8.910;2023-08-01T08:57:32;21.30;99.90
30308;DHT22;17114;52.314;8.910;2023-08-01T09:00:03;21.60;99.90
30308;DHT22;17114;52.314;8.910;2023-08-01T09:02:32;21.70;99.90
30308;DHT22;17114;52.314;8.910;2023-08-01T09:04:59;21.40;99.90
30308;DHT22;17114;52.314;8.910;2023-08-01T09:07:30;21.20;99.90
30308;DHT22;17114;52.314;8.910;2023-08-01T09:10:00;21.30;99.90
30308;DHT22;17114;52.314;8.910;2023-08-01T09:12:26;21.20;99.90
30308;DHT22;17114;52.314;8.910;2023-08-01T09:14:56;20.90;99.90
30308;DHT22;17114;52.314;8.910;2023-08-01T09:17:25;20.90;99.90
30308;DHT22;17114;52.314;8.910;2023-08-01T09:20:05;20.70;99.90
30308;DHT22;17114;52.314;8.910;2023-08-01T09:22:46;20.80;99.90
30308;DHT22;17114;52.314;8.910;2023-08-01T09:25:13;20.80;99.90
30308;DHT22;17114;52.314;8.910;2023-08-01T09:27:40;20.80;99.90
30308;DHT22;17114;52.314;8.910;2023-08-01T09:30:12;21.10;99.90
30308;DHT22;17114;52.314;8.910;2023-08-01T09:32:56;21.30;99.90
30308;DHT22;17114;52.314;8.910;2023-08-01T09:35:24;21.40;99.90
30308;DHT22;17114;52.314;8.910;2023-08-01T09:37:51;21.20;99.90
30308;DHT22;17114;52.314;8.910;2023-08-01T09:40:19;20.90;99.90
30308;DHT22;17114;52.314;8.910;2023-08-01T09:42:46;21.10;99.90
30308;DHT22;17114;52.314;8.910;2023-08-01T09:45:17;21.30;99.90
30308;DHT22;17114;52.314;8.910;2023-08-01T09:47:45;21.10;99.90
30308;DHT22;17114;52.314;8.910;2023-08-01T09:50:21;20.80;99.90
30308;DHT22;17114;52.314;8.910;2023-08-01T09:52:48;21.00;99.90
30308;DHT22;17114;52.314;8.910;2023-08-01T09:55:34;21.40;99.90
30308;DHT22;17114;52.314;8.910;2023-08-01T09:58:01;21.60;99.90
30308;DHT22;17114;52.314;8.910;2023-08-01T10:00:29;21.50;99.90
30308;DHT22;17114;52.314;8.910;2023-08-01T10:03:00;21.50;99.90
30308;DHT22;17114;52.314;8.910;2023-08-01T10:05:32;21.40;99.90
30308;DHT22;17114;52.314;8.910;2023-08-01T10:08:01;21.10;99.90
30308;DHT22;17114;52.314;8.910;2023-08-01T10:10:29;20.80;99.90
30308;DHT22;17114;52.314;8.910;2023-08-01T10:12:57;20.60;99.90
30308;DHT22;17114;52.314;8.910;2023-08-01T10:15:24;20.40;99.90
30308;DHT22;17114;52.314;8.910;2023-08-01T10:17:54;20.30;99.90
30308;DHT22;17114;52.314;8.910;2023-08-01T10:20:21;20.10;99.90
30308;DHT22;17114;52.314;8.910;2023-08-01T10:22:49;19.90;99.90
30308;DHT22;17114;52.314;8.910;2023-08-01T10:25:18;19.80;99.90
30308;DHT22;17114;52.314;8.910;2023-08-01T10:28:00;19.80;99.90
30308;DHT22;17114;52.314;8.910;2023-08-01T10:30:28;20.10;99.90
30308;DHT22;17114;52.314;8.910;2023-08-01T10:32:56;20.30;99.90
30308;DHT22;17114;52.314;8.910;2023-08-01T10:35:37;20.10;99.90
30308;DHT22;17114;52.314;8.910;2023-08-01T10:38:09;20.00;99.90
30308;DHT22;17114;52.314;8.910;2023-08-01T10:40:41;19.60;99.90
30308;DHT22;17114;52.314;8.910;2023-08-01T10:43:22;19.30;99.90
30308;DHT22;17114;52.314;8.910;2023-08-01T10:46:03;19.30;99.90
30308;DHT22;17114;52.314;8.910;2023-08-01T10:48:30;18.90;99.90
30308;DHT22;17114;52.314;8.910;2023-08-01T10:50:57;18.60;99.90
30308;DHT22;17114;52.314;8.910;2023-08-01T10:53:24;18.40;99.90
30308;DHT22;17114;52.314;8.910;2023-08-01T10:55:52;18.20;99.90
30308;DHT22;17114;52.314;8.910;2023-08-01T10:58:19;18.00;99.90
30308;DHT22;17114;52.314;8.910;2023-08-01T11:00:45;17.90;99.90
30308;DHT22;17114;52.314;8.910;2023-08-01T11:03:12;17.90;99.90
30308;DHT22;17114;52.314;8.910;2023-08-01T11:05:39;18.00;99.90
30308;DHT22;17114;52.314;8.910;2023-08-01T11:08:06;18.20;99.90
30308;DHT22;17114;52.314;8.910;2023-08-01T11:10:33;18.40;99.90
30308;DHT22;17114;52.314;8.910;2023-08-01T11:13:01;18.70;99.90
30308;DHT22;17114;52.314;8.910;2023-08-01T11:15:28;19.10;99.90
30308;DHT22;17114;52.314;8.910;2023-08-01T11:17:55;19.50;99.90
30308;DHT22;17114;52.314;8.910;2023-08-01T11:20:24;19.70;99.90
30308;DHT22;17114;52.314;8.910;2023-08-01T11:22:57;19.90;99.90
30308;DHT22;17114;52.314;8.910;2023-08-01T11:25:40;20.40;99.90
30308;DHT22;17114;52.314;8.910;2023-08-01T11:28:14;20.80;99.90
30308;DHT22;17114;52.314;8.910;2023-08-01T11:30:41;21.30;99.90
30308;DHT22;17114;52.314;8.910;2023-08-01T11:33:14;21.20;99.90
30308;DHT22;17114;52.314;8.910;2023-08-01T11:35:42;20.60;99.90
30308;DHT22;17114;52.314;8.910;2023-08-01T11:38:09;20.00;99.90
30308;DHT22;17114;52.314;8.910;2023-08-01T11:40:36;19.20;99.90
30308;DHT22;17114;52.314;8.910;2023-08-01T11:43:04;18.40;99.90
30308;DHT22;17114;52.314;8.910;2023-08-01T11:45:30;17.90;99.90
30308;DHT22;17114;52.314;8.910;2023-08-01T11:47:57;17.60;99.90
30308;DHT22;17114;52.314;8.910;2023-08-01T11:50:25;17.40;99.90
30308;DHT22;17114;52.314;8.910;2023-08-01T11:52:52;17.20;99.90
30308;DHT22;17114;52.314;8.910;2023-08-01T11:55:21;17.10;99.90
30308;DHT22;17114;52.314;8.910;2023-08-01T11:57:58;17.00;99.90
30308;DHT22;17114;52.314;8.910;2023-08-01T12:00:28;17.10;99.90
30308;DHT22;17114;52.314;8.910;2023-08-01T12:03:09;17.20;99.90
30308;DHT22;17114;52.314;8.910;2023-08-01T12:05:42;17.40;99.90
30308;DHT22;17114;52.314;8.910;2023-08-01T12:08:13;17.60;99.90
30308;DHT22;17114;52.314;8.910;2023-08-01T12:10:44;17.70;99.90
30308;DHT22;17114;52.314;8.910;2023-08-01T12:13:24;17.90;99.90
30308;DHT22;17114;52.314;8.910;2023-08-01T12:15:53;18.00;99.90
30308;DHT22;17114;52.314;8.910;2023-08-01T12:18:28;18.20;99.90
30308;DHT22;17114;52.314;8.910;2023-08-01T12:21:15;18.50;99.90
30308;DHT22;17114;52.314;8.910;2023-08-01T12:23:41;18.60;99.90
30308;DHT22;17114;52.314;8.910;2023-08-01T12:26:08;18.50;99.90
30308;DHT22;17114;52.314;8.910;2023-08-01T12:28:36;18.50;99.90
30308;DHT22;17114;52.314;8.910;2023-08-01T12:31:03;18.50;99.90
30308;DHT22;17114;52.314;8.910;2023-08-01T12:33:32;18.50;99.90
30308;DHT22;17114;52.314;8.910;2023-08-01T12:35:59;18.30;99.90
30308;DHT22;17114;52.314;8.910;2023-08-01T12:38:26;18.30;99.90
30308;DHT22;17114;52.314;8.910;2023-08-01T12:40:53;18.20;99.90
30308;DHT22;17114;52.314;8.910;2023-08-01T12:43:20;18.10;99.90
30308;DHT22;17114;52.314;8.910;2023-08-01T12:45:47;17.60;99.90
30308;DHT22;17114;52.314;8.910;2023-08-01T12:48:19;17.20;99.90
30308;DHT22;17114;52.314;8.910;2023-08-01T12:50:46;16.90;99.90
30308;DHT22;17114;52.314;8.910;2023-08-01T12:53:13;16.80;99.90
30308;DHT22;17114;52.314;8.910;2023-08-01T12:55:43;16.80;99.90
30308;DHT22;17114;52.314;8.910;2023-08-01T12:58:11;16.80;99.90
30308;DHT22;17114;52.314;8.910;2023-08-01T13:00:39;17.00;99.90
30308;DHT22;17114;52.314;8.910;2023-08-01T13:03:07;17.70;99.90
30308;DHT22;17114;52.314;8.910;2023-08-01T13:05:35;18.60;99.90
30308;DHT22;17114;52.314;8.910;2023-08-01T13:08:02;19.30;99.90
30308;DHT22;17114;52.314;8.910;2023-08-01T13:10:33;19.60;99.90
30308;DHT22;17114;52.314;8.910;2023-08-01T13:13:01;19.80;99.90
30308;DHT22;17114;52.314;8.910;2023-08-01T13:15:29;20.20;99.90
30308;DHT22;17114;52.314;8.910;2023-08-01T13:17:56;20.10;99.90
30308;DHT22;17114;52.314;8.910;2023-08-01T13:20:23;19.80;99.90
30308;DHT22;17114;52.314;8.910;2023-08-01T13:22:53;19.30;99.90
30308;DHT22;17114;52.314;8.910;2023-08-01T13:25:19;18.80;99.90
30308;DHT22;17114;52.314;8.910;2023-08-01T13:27:46;18.50;99.90
30308;DHT22;17114;52.314;8.910;2023-08-01T13:30:13;18.30;99.90
30308;DHT22;17114;52.314;8.910;2023-08-01T13:32:45;18.10;99.90
30308;DHT22;17114;52.314;8.910;2023-08-01T13:35:14;17.80;99.90
30308;DHT22;17114;52.314;8.910;2023-08-01T13:37:42;17.60;99.90
30308;DHT22;17114;52.314;8.910;2023-08-01T13:40:11;17.50;99.90
30308;DHT22;17114;52.314;8.910;2023-08-01T13:42:40;17.30;99.90
30308;DHT22;17114;52.314;8.910;2023-08-01T13:45:08;17.20;99.90
30308;DHT22;17114;52.314;8.910;2023-08-01T13:47:35;17.10;99.90
30308;DHT22;17114;52.314;8.910;2023-08-01T13:50:02;17.00;99.90
30308;DHT22;17114;52.314;8.910;2023-08-01T13:52:29;17.30;99.90
30308;DHT22;17114;52.314;8.910;2023-08-01T13:54:56;17.60;99.90
30308;DHT22;17114;52.314;8.910;2023-08-01T13:57:23;17.90;99.90
30308;DHT22;17114;52.314;8.910;2023-08-01T13:59:52;18.10;99.90
30308;DHT22;17114;52.314;8.910;2023-08-01T14:02:36;18.30;99.90
30308;DHT22;17114;52.314;8.910;2023-08-01T14:05:03;18.40;99.90
30308;DHT22;17114;52.314;8.910;2023-08-01T14:07:30;18.50;99.90
30308;DHT22;17114;52.314;8.910;2023-08-01T14:09:57;18.60;99.90
30308;DHT22;17114;52.314;8.910;2023-08-01T14:12:25;18.70;99.90
30308;DHT22;17114;52.314;8.910;2023-08-01T14:14:53;18.80;99.90
30308;DHT22;17114;52.314;8.910;2023-08-01T14:17:19;18.90;99.90
30308;DHT22;17114;52.314;8.910;2023-08-01T14:19:46;19.10;99.90
30308;DHT22;17114;52.314;8.910;2023-08-01T14:22:13;19.20;99.90
30308;DHT22;17114;52.314;8.910;2023-08-01T14:24:40;19.30;99.90
30308;DHT22;17114;52.314;8.910;2023-08-01T14:27:09;19.40;99.90
30308;DHT22;17114;52.314;8.910;2023-08-01T14:29:35;19.30;99.90
30308;DHT22;17114;52.314;8.910;2023-08-01T14:32:03;19.20;99.90
30308;DHT22;17114;52.314;8.910;2023-08-01T14:34:30;19.10;99.90
30308;DHT22;17114;52.314;8.910;2023-08-01T14:36:56;19.00;99.90
30308;DHT22;17114;52.314;8.910;2023-08-01T14:39:23;19.00;99.90
30308;DHT22;17114;52.314;8.910;2023-08-01T14:41:50;19.20;99.90
30308;DHT22;17114;52.314;8.910;2023-08-01T14:44:30;19.30;99.90
30308;DHT22;17114;52.314;8.910;2023-08-01T14:46:57;19.30;99.90
30308;DHT22;17114;52.314;8.910;2023-08-01T14:49:24;19.20;99.90
30308;DHT22;17114;52.314;8.910;2023-08-01T14:51:54;19.30;99.90
30308;DHT22;17114;52.314;8.910;2023-08-01T14:54:21;19.50;99.90
30308;DHT22;17114;52.314;8.910;2023-08-01T14:57:05;19.50;99.90
30308;DHT22;17114;52.314;8.910;2023-08-01T14:59:32;19.60;99.90
30308;DHT22;17114;52.314;8.910;2023-08-01T15:01:59;19.80;99.90
30308;DHT22;17114;52.314;8.910;2023-08-01T15:04:25;19.70;99.90
30308;DHT22;17114;52.314;8.910;2023-08-01T15:06:53;19.80;99.90
30308;DHT22;17114;52.314;8.910;2023-08-01T15:09:20;19.80;99.90
30308;DHT22;17114;52.314;8.910;2023-08-01T15:11:47;19.60;99.90
30308;DHT22;17114;52.314;8.910;2023-08-01T15:14:14;19.40;99.90
30308;DHT22;17114;52.314;8.910;2023-08-01T15:16:41;19.30;99.90
30308;DHT22;17114;52.314;8.910;2023-08-01T15:19:08;19.40;99.90
30308;DHT22;17114;52.314;8.910;2023-08-01T15:21:35;19.50;99.90
30308;DHT22;17114;52.314;8.910;2023-08-01T15:24:02;19.60;99.90
30308;DHT22;17114;52.314;8.910;2023-08-01T15:26:29;19.60;99.90
30308;DHT22;17114;52.314;8.910;2023-08-01T15:28:56;19.70;99.90
30308;DHT22;17114;52.314;8.910;2023-08-01T15:31:23;19.80;99.90
30308;DHT22;17114;52.314;8.910;2023-08-01T15:33:51;19.70;99.90
30308;DHT22;17114;52.314;8.910;2023-08-01T15:36:19;19.70;99.90
30308;DHT22;17114;52.314;8.910;2023-08-01T15:38:51;19.60;99.90